Waseca, MN

1:07 PM CDT on July 27, 2016 (GMT -0500)
Waseca Municipal

Weather History for KACQ - October, 2012

Change the Weather History Date:

Thursday, October 11, 2012

  Actual Average Record
Temperature  
Mean Temperature 42 °F -  
Max Temperature 53 °F 60 °F 85 °F (1934)
Min Temperature 28 °F 37 °F 17 °F (1987)
Degree Days  
Heating Degree Days 24    
Moisture  
Dew Point 23 °F    
Average Humidity 42    
Maximum Humidity 61    
Minimum Humidity 20    
Precipitation  
Precipitation 0.00 in - - ()
Sea Level Pressure  
Sea Level Pressure 30.12 in    
Wind  
Wind Speed 15 mph (NW)    
Max Wind Speed 26 mph    
Max Gust Speed 33 mph    
Visibility 10 miles    
Events      
Averages and records for this station are not official NWS values.
T = Trace of Precipitation, MM = Missing Value Source: NWS Daily Summary

Daily Weather History Graph

Daily Weather History Graph

Search for Another Location

Airport or City:

Trip Planner

Search our weather history database for the weather conditions in past years. The results will help you decide how hot, cold, wet, or windy it might be!

Date:

Astronomy

Oct. 11, 2012 Rise Set
Actual Time 7:24 AM CDT 6:36 PM CDT
Civil Twilight 6:55 AM CDT 7:05 PM CDT
Nautical Twilight 6:22 AM CDT 7:38 PM CDT
Astronomical Twilight 5:48 AM CDT 8:12 PM CDT
Moon 2:55 AM CDT (10/11) 4:20 PM CDT (10/11)
Length of Visible Light 12h 09m
Length of Day
11h 11m
Waning Crescent, 18% of the Moon is Illuminated
Oct 11
Waning Crescent
Oct 15
New
Oct 21
First Quarter
Oct 29
Full
Nov 6
Last Quarter

Hourly Weather History & Observations

Time (CDT) Temp. Windchill Dew Point Humidity Pressure Visibility Wind Dir Wind Speed Gust Speed Precip Events Conditions
12:13 AM 46.4 °F 39.8 °F 26.6 °F 46% 29.91 in 10.0 mi South 16.1 mph - N/A   Clear
12:33 AM 46.4 °F 39.8 °F 26.6 °F 46% 29.90 in 10.0 mi South 16.1 mph - N/A   Clear
12:52 AM 48.2 °F - 28.4 °F 46% 29.88 in 10.0 mi South 19.6 mph 23.0 mph N/A   Scattered Clouds
1:12 AM 51.8 °F - 28.4 °F 41% 29.88 in 10.0 mi SSW 20.7 mph 29.9 mph N/A   Clear
1:33 AM 51.8 °F - 28.4 °F 41% 29.88 in 10.0 mi SSW 18.4 mph 27.6 mph N/A   Clear
1:52 AM 51.8 °F - 28.4 °F 41% 29.88 in 10.0 mi SSW 23.0 mph 26.5 mph N/A   Clear
2:12 AM 53.6 °F - 28.4 °F 38% 29.87 in 10.0 mi SSW 21.9 mph 32.2 mph N/A   Clear
2:53 AM 53.6 °F - 30.2 °F 41% 29.86 in 10.0 mi SSW 26.5 mph 33.4 mph N/A   Clear
3:12 AM 53.6 °F - 30.2 °F 41% 29.86 in 10.0 mi SSW 21.9 mph 27.6 mph N/A   Clear
3:33 AM 53.6 °F - 30.2 °F 41% 29.91 in 10.0 mi West 16.1 mph - N/A   Scattered Clouds
3:53 AM 51.8 °F - 28.4 °F 41% 29.91 in 10.0 mi SW 10.4 mph - N/A   Clear
4:12 AM 51.8 °F - 30.2 °F 44% 29.91 in 10.0 mi SW 10.4 mph - N/A   Clear
4:33 AM 51.8 °F - 30.2 °F 44% 29.91 in 10.0 mi SSW 10.4 mph - N/A   Clear
4:53 AM 50.0 °F - 30.2 °F 47% 29.91 in 10.0 mi SSW 9.2 mph - N/A   Clear
5:12 AM 50.0 °F - 28.4 °F 43% 29.91 in 10.0 mi SSW 9.2 mph - N/A   Clear
5:33 AM 50.0 °F - 28.4 °F 43% 29.92 in 10.0 mi SW 9.2 mph - N/A   Clear
5:52 AM 48.2 °F - 28.4 °F 46% 29.92 in 10.0 mi SSW 9.2 mph - N/A   Clear
6:13 AM 48.2 °F - 28.4 °F 46% 29.92 in 10.0 mi SSW 11.5 mph - N/A   Clear
6:33 AM 48.2 °F - 28.4 °F 46% 29.94 in 10.0 mi WSW 6.9 mph - N/A   Clear
6:52 AM 46.4 °F 42.4 °F 28.4 °F 50% 29.96 in 10.0 mi West 8.1 mph - N/A   Clear
7:13 AM 51.8 °F - 30.2 °F 44% 29.97 in 10.0 mi WNW 8.1 mph - N/A   Clear
7:33 AM 48.2 °F - 28.4 °F 46% 29.98 in 10.0 mi NNW 17.3 mph - N/A   Clear
7:52 AM 46.4 °F 40.4 °F 28.4 °F 50% 30.00 in 10.0 mi NNW 13.8 mph - N/A   Clear
8:13 AM 44.6 °F 38.1 °F 28.4 °F 53% 30.03 in 10.0 mi NNW 13.8 mph 20.7 mph N/A   Mostly Cloudy
8:33 AM 44.6 °F 38.1 °F 30.2 °F 57% 30.04 in 10.0 mi North 13.8 mph - N/A   Overcast
8:53 AM 44.6 °F 37.4 °F 30.2 °F 57% 30.07 in 10.0 mi North 16.1 mph 21.9 mph N/A   Overcast
9:13 AM 44.6 °F 37.8 °F 32.0 °F 61% 30.08 in 10.0 mi North 15.0 mph 23.0 mph N/A   Overcast
9:33 AM 44.6 °F 36.6 °F 32.0 °F 61% 30.09 in 10.0 mi North 19.6 mph - N/A   Overcast
9:52 AM 44.6 °F 36.4 °F 32.0 °F 61% 30.10 in 10.0 mi North 20.7 mph - N/A   Overcast
10:13 AM 44.6 °F 37.2 °F 32.0 °F 61% 30.11 in 10.0 mi North 17.3 mph 24.2 mph N/A   Scattered Clouds
10:33 AM 44.6 °F 37.4 °F 32.0 °F 61% 30.12 in 10.0 mi North 16.1 mph - N/A   Clear
10:53 AM 46.4 °F 39.8 °F 32.0 °F 57% 30.14 in 10.0 mi North 16.1 mph - N/A   Clear
11:13 AM 46.4 °F 39.2 °F 30.2 °F 53% 30.15 in 10.0 mi NNW 18.4 mph - N/A   Clear
11:32 AM 48.2 °F - 26.6 °F 43% 30.16 in 10.0 mi North 18.4 mph - N/A   Scattered Clouds
11:53 AM 46.4 °F 39.2 °F 24.8 °F 43% 30.17 in 10.0 mi North 18.4 mph 23.0 mph N/A   Overcast
12:13 PM 46.4 °F 39.8 °F 26.6 °F 46% 30.18 in 10.0 mi North 16.1 mph 21.9 mph N/A   Overcast
1:13 PM 50.0 °F - 26.6 °F 40% 30.17 in 10.0 mi North 15.0 mph 19.6 mph N/A   Clear
1:33 PM 50.0 °F - 26.6 °F 40% 30.18 in 10.0 mi North 15.0 mph 21.9 mph N/A   Scattered Clouds
1:53 PM 50.0 °F - 26.6 °F 40% 30.19 in 10.0 mi NNW 16.1 mph 21.9 mph N/A   Scattered Clouds
2:13 PM 51.8 °F - 26.6 °F 38% 30.20 in 10.0 mi North 12.7 mph 19.6 mph N/A   Scattered Clouds
2:33 PM 50.0 °F - 21.2 °F 32% 30.19 in 10.0 mi NNW 17.3 mph 21.9 mph N/A   Scattered Clouds
2:53 PM 48.2 °F - 21.2 °F 34% 30.20 in 10.0 mi NNW 17.3 mph - N/A   Mostly Cloudy
3:13 PM 48.2 °F - 19.4 °F 32% 30.20 in 10.0 mi North 15.0 mph - N/A   Mostly Cloudy
3:33 PM 46.4 °F 40.4 °F 17.6 °F 32% 30.23 in 10.0 mi NNW 13.8 mph - N/A   Overcast
3:52 PM 48.2 °F - 17.6 °F 30% 30.23 in 10.0 mi NNW 16.1 mph 19.6 mph N/A   Mostly Cloudy
4:13 PM 48.2 °F - 15.8 °F 27% 30.23 in 10.0 mi NW 17.3 mph - N/A   Overcast
4:32 PM 48.2 °F - 14.0 °F 25% 30.22 in 10.0 mi NNW 16.1 mph 20.7 mph N/A   Overcast
5:13 PM 48.2 °F - 8.6 °F 20% 30.25 in 10.0 mi NNW 13.8 mph - N/A   Clear
5:32 PM 46.4 °F 40.4 °F 10.4 °F 23% 30.25 in 10.0 mi NNW 13.8 mph - N/A   Scattered Clouds
5:53 PM 46.4 °F 40.4 °F 10.4 °F 23% 30.25 in 10.0 mi NNW 13.8 mph 18.4 mph N/A   Clear
6:13 PM 46.4 °F 42.4 °F 12.2 °F 25% 30.25 in 10.0 mi NNW 8.1 mph - N/A   Clear
6:33 PM 44.6 °F 39.2 °F 12.2 °F 27% 30.26 in 10.0 mi NNW 10.4 mph - N/A   Clear
6:52 PM 44.6 °F 39.2 °F 8.6 °F 23% 30.27 in 10.0 mi North 10.4 mph - N/A   Clear
7:13 PM 44.6 °F 40.2 °F 10.4 °F 25% 30.28 in 10.0 mi NNW 8.1 mph - N/A   Clear
7:33 PM 41.0 °F 37.1 °F 10.4 °F 29% 30.29 in 10.0 mi NNW 5.8 mph - N/A   Clear
7:53 PM 39.2 °F 35.0 °F 12.2 °F 33% 30.29 in 10.0 mi NNW 5.8 mph - N/A   Clear
8:13 PM 39.2 °F 35.0 °F 14.0 °F 36% 30.30 in 10.0 mi NNW 5.8 mph - N/A   Clear
8:33 PM 35.6 °F 29.2 °F 12.2 °F 38% 30.31 in 10.0 mi NNW 8.1 mph - N/A   Clear
8:53 PM 33.8 °F 27.0 °F 15.8 °F 48% 30.32 in 10.0 mi NNW 8.1 mph - N/A   Clear
9:13 PM 37.4 °F 32.1 °F 14.0 °F 38% 30.34 in 10.0 mi North 6.9 mph - N/A   Clear
9:33 PM 33.8 °F 27.7 °F 14.0 °F 44% 30.35 in 10.0 mi North 6.9 mph - N/A   Clear
9:52 PM 33.8 °F 28.6 °F 14.0 °F 44% 30.35 in 10.0 mi North 5.8 mph - N/A   Clear
10:33 PM 32.0 °F 26.4 °F 14.0 °F 48% 30.37 in 10.0 mi North 5.8 mph - N/A   Clear
10:53 PM 32.0 °F - 17.6 °F 55% 30.38 in 10.0 mi Calm Calm - N/A   Clear
11:13 PM 30.2 °F 26.7 °F 15.8 °F 55% 30.39 in 10.0 mi NW 3.5 mph - N/A   Clear
11:32 PM 30.2 °F - 15.8 °F 55% 30.39 in 10.0 mi Calm Calm - N/A   Clear
11:53 PM 28.4 °F - 14.0 °F 55% 30.40 in 10.0 mi Calm Calm - N/A   Clear